Etusivu
METAR-TAF:

METAR-TAF

Lentoasemat :

Ängelholm-Helsingborgin lentoasema

Helsingborg, Ruotsi

Leveyspiiri: 56-17-46N, Pituuspiiri: 012-50-50E, korkeus merenpinnasta: 21 m

Tämänhetkinen sää

Tämä raportti tehtiin 28 minuuttia sitten, kello 12.50 UTC
Tuuli 13 kn pohjoisesta/koillisesta
Lämpötila 5°C
Kosteus 24%
Ilmanpaine 1030 hPa
Näkyvyys 10 km tai enemmän

METAR: ESTA 291250Z AUTO 02013KT 9999 NCD 05/M14 Q1030

Aika: 15:18 (13:18 UTC)

Sääennuste

Tämä raportti tehtiin 55 minuuttia sitten, kello 12.23 UTC
Ennuste voimassa 29. päivästä klo 13 UTC - 29. päivään klo 19 UTC
Tuuli 12 kn pohjoisesta/koillisesta
Näkyvyys 10 km tai enemmän
ei pilviä alle 1500 m:ssä eikä cumulonimbus-pilviä

TAF: ESTA 291223Z 2913/2919 02012KT CAVOK

Säähavainnot ja -ennusteet yli 4000 lentoasemalta (METAR- ja TAF-raportit).

Käytössä olevat sääasemat on merkitty karttaan keltaisilla ja punaisilla pisteillä.

Aseta hiiri pisteen päälle nähdäksesi sääaseman nimen.

Klikkaa sitten nähdäksesi säähavainnot ja -ennusteet.

Kartan vaihtaminen: klikkaa mustalla rastilla varustettuja vihreitä pisteitä, niin voit zoomata sisään; viivalla varustettua vihreää pistettä, niin voit zoomata ulos tai vihreitä nuolia, niin pääset viereisille kartoille.


METAR-TAF: